Flight Track Log - Related Links

Times and Time Zones

All times are in EST time to prevent confusion due to time zone crossing. See the AIP2696 flight status page for this flight to view local times or setup timezone preferences in your user account.


Time Position Orientation Groundspeed Altitude Reporting Facility
EST Latitude Longitude Course Direction KTS MPH feet Rate Location/Type
Mon 08:09:48 PM 47.4219 -111.3828 123° Southeast 168 193 7,200  Level Salt Lake Center
Mon 08:10:50 PM 47.3925 -111.3169 123° Southeast 190 219 8,300 1,171 Climbing Salt Lake Center
Mon 08:11:51 PM 47.3653 -111.2478 120° Southeast 194 223 9,600 1,122 Climbing Salt Lake Center
Mon 08:12:53 PM 47.3331 -111.1844 127° Southeast 194 223 10,600 976 Climbing Salt Lake Center
Mon 08:13:54 PM 47.2942 -111.1028 125° Southeast 199 229 11,600 878 Climbing Salt Lake Center
Mon 08:14:56 PM 47.2728 -111.0217 111° Southeast 209 241 12,400 780 Climbing Salt Lake Center
Mon 08:15:57 PM 47.2458 -110.9425 117° Southeast 217 250 13,200 341 Climbing Salt Lake Center
Mon 08:16:59 PM 47.2228 -110.8567 112° Southeast 220 253 13,100 -48 Descending Salt Lake Center
Mon 08:18:01 PM 47.1856 -110.7722 123° Southeast 235 270 13,100 -49 Level Salt Lake Center
Mon 08:19:02 PM 47.1358 -110.7036 137° Southeast 243 280 13,000 -98 Descending Salt Lake Center
Mon 08:20:04 PM 47.0825 -110.6450 143° Southeast 243 280 12,900 -48 Descending Salt Lake Center
Mon 08:21:06 PM 47.0194 -110.5725 142° Southeast 241 277 12,900 98 Level Salt Lake Center
Mon 08:22:07 PM 46.9728 -110.5017 134° Southeast 241 277 13,100 98 Climbing Salt Lake Center
Mon 08:23:09 PM 46.9314 -110.4272 129° Southeast 238 274 13,100 48 Level Salt Lake Center
Mon 08:24:11 PM 46.8928 -110.3489 126° Southeast 237 273 13,200 -98 Climbing Salt Lake Center
Mon 08:25:12 PM 46.8514 -110.2725 128° Southeast 239 275 12,900 -49 Descending Salt Lake Center
Mon 08:26:14 PM 46.8053 -110.1994 133° Southeast 242 278 13,100 97 Climbing Salt Lake Center
Mon 08:27:16 PM 46.7603 -110.1267 132° Southeast 242 278 13,100 -49 Level Salt Lake Center
Mon 08:28:17 PM 46.7042 -110.0497 137° Southeast 241 277 13,000 -49 Descending Salt Lake Center
Mon 08:29:19 PM 46.6586 -109.9808 134° Southeast 239 275 13,000 48 Level Salt Lake Center
Mon 08:30:21 PM 46.6142 -109.9103 133° Southeast 237 273 13,100 48 Climbing Salt Lake Center
Mon 08:31:23 PM 46.5739 -109.8339 127° Southeast 236 272 13,100 -49 Level Salt Lake Center
Mon 08:32:24 PM 46.5275 -109.7656 135° Southeast 238 274 13,000 -49 Descending Salt Lake Center
Mon 08:33:26 PM 46.4667 -109.6931 141° Southeast 237 273 13,000  Level Salt Lake Center
Mon 08:34:28 PM 46.4214 -109.6253 134° Southeast 239 275 13,000  Level Salt Lake Center
Mon 08:35:30 PM 46.3767 -109.5458 129° Southeast 238 274 13,000  Level Salt Lake Center
Mon 08:36:31 PM 46.3350 -109.4719 129° Southeast 239 275 13,000 -98 Level Salt Lake Center
Mon 08:37:33 PM 46.2894 -109.3922 130° Southeast 240 276 12,800 -435 Descending Salt Lake Center
Mon 08:38:35 PM 46.2453 -109.3167 130° Southeast 250 288 12,100 -927 Descending Salt Lake Center
Mon 08:39:36 PM 46.1942 -109.2331 131° Southeast 256 295 10,900 -1,024 Descending Salt Lake Center
Mon 08:40:38 PM 46.1492 -109.1522 129° Southeast 261 300 10,000 -435 Descending Salt Lake Center
Mon 08:41:40 PM 46.1083 -109.0675 125° Southeast 243 280 10,000  Level Salt Lake Center
Mon 08:42:42 PM 46.0878 -108.9778 108° East 240 276 10,000  Level Salt Lake Center
Mon 08:43:43 PM 46.0667 -108.8886 109° East 239 275 10,000  Level Salt Lake Center
Mon 08:44:45 PM 46.0428 -108.7925 110° East 236 272 10,000  Level Salt Lake Center
Mon 08:45:47 PM 46.0211 -108.7039 109° East 237 273 10,000 -341 Level Salt Lake Center
Mon 08:46:48 PM 45.9961 -108.6053 110° East 244 281 9,300 -829 Descending Salt Lake Center
Mon 08:47:50 PM 45.9725 -108.5089 109° East 257 296 8,300 -726 Descending Salt Lake Center
Mon 08:48:52 PM 45.9464 -108.4231 114° Southeast 232 267 7,800 -244 Descending Salt Lake Center
Mon 08:49:53 PM 45.9197 -108.3481 117° Southeast 194 223 7,800 -390 Level Salt Lake Center
Mon 08:50:55 PM 45.8947 -108.2861 120° Southeast 184 212 7,000 -435 Descending Salt Lake Center
Mon 08:51:57 PM 45.8581 -108.2414 140° Southeast 162 186 6,900 -341 Descending Salt Lake Center
Mon 08:52:58 PM 45.8139 -108.2625 198° South 168 193 6,300 -439 Descending Salt Lake Center
Mon 08:54:00 PM 45.7731 -108.2844 201° Southwest 158 182 6,000 -195 Descending Salt Lake Center
Mon 08:55:01 PM 45.7547 -108.3342 242° Southwest 143 165 5,900 -293 Descending Salt Lake Center
Mon 08:56:03 PM 45.7667 -108.3908 287° West 153 176 5,400 -581 Descending Salt Lake Center
Mon 08:57:05 PM 45.7822 -108.4450 292° West 139 160 4,700 -732 Descending Salt Lake Center
Mon 08:58:06 PM 45.7950 -108.4914 292° West 130 150 3,900 -787 Descending Salt Lake Center

Login

Don't have an account? Register now (free) for customized features, flight alerts, and more!